sensor_id;sensor_type;location;lat;lon;timestamp;P1;durP1;ratioP1;P2;durP2;ratioP2
19645;SDS011;9971;52.446;13.452;2024-03-29T00:02:02;0.80;;;0.60;;
19645;SDS011;9971;52.446;13.452;2024-03-29T00:07:05;1.02;;;0.42;;
19645;SDS011;9971;52.446;13.452;2024-03-29T00:12:07;3.08;;;0.75;;
19645;SDS011;9971;52.446;13.452;2024-03-29T00:17:10;1.10;;;0.53;;
19645;SDS011;9971;52.446;13.452;2024-03-29T00:22:12;2.33;;;0.70;;
19645;SDS011;9971;52.446;13.452;2024-03-29T00:27:15;0.75;;;0.50;;
19645;SDS011;9971;52.446;13.452;2024-03-29T00:32:17;0.60;;;0.53;;
19645;SDS011;9971;52.446;13.452;2024-03-29T00:37:20;0.87;;;0.50;;
19645;SDS011;9971;52.446;13.452;2024-03-29T00:42:22;0.70;;;0.35;;
19645;SDS011;9971;52.446;13.452;2024-03-29T00:47:24;1.90;;;0.40;;
19645;SDS011;9971;52.446;13.452;2024-03-29T00:52:27;0.65;;;0.23;;
19645;SDS011;9971;52.446;13.452;2024-03-29T00:57:29;0.72;;;0.35;;
19645;SDS011;9971;52.446;13.452;2024-03-29T01:02:31;1.57;;;0.60;;
19645;SDS011;9971;52.446;13.452;2024-03-29T01:07:34;1.67;;;0.60;;
19645;SDS011;9971;52.446;13.452;2024-03-29T01:12:37;2.62;;;0.68;;
19645;SDS011;9971;52.446;13.452;2024-03-29T01:17:39;1.37;;;0.67;;
19645;SDS011;9971;52.446;13.452;2024-03-29T01:22:41;0.70;;;0.68;;
19645;SDS011;9971;52.446;13.452;2024-03-29T01:27:44;1.10;;;0.68;;
19645;SDS011;9971;52.446;13.452;2024-03-29T01:32:46;0.80;;;0.57;;
19645;SDS011;9971;52.446;13.452;2024-03-29T01:37:49;1.55;;;0.90;;
19645;SDS011;9971;52.446;13.452;2024-03-29T01:42:53;0.95;;;0.80;;
19645;SDS011;9971;52.446;13.452;2024-03-29T01:47:55;1.73;;;0.80;;
19645;SDS011;9971;52.446;13.452;2024-03-29T01:52:57;0.80;;;0.67;;
19645;SDS011;9971;52.446;13.452;2024-03-29T01:58:00;1.87;;;0.90;;
19645;SDS011;9971;52.446;13.452;2024-03-29T02:03:01;1.10;;;0.60;;
19645;SDS011;9971;52.446;13.452;2024-03-29T02:08:04;1.25;;;0.95;;
19645;SDS011;9971;52.446;13.452;2024-03-29T02:13:06;0.75;;;0.70;;
19645;SDS011;9971;52.446;13.452;2024-03-29T02:18:09;1.75;;;1.00;;
19645;SDS011;9971;52.446;13.452;2024-03-29T02:23:13;1.25;;;0.95;;
19645;SDS011;9971;52.446;13.452;2024-03-29T02:28:13;1.40;;;0.80;;
19645;SDS011;9971;52.446;13.452;2024-03-29T02:33:15;1.07;;;1.00;;
19645;SDS011;9971;52.446;13.452;2024-03-29T02:38:18;1.67;;;1.35;;
19645;SDS011;9971;52.446;13.452;2024-03-29T02:43:20;2.52;;;1.10;;
19645;SDS011;9971;52.446;13.452;2024-03-29T02:48:22;1.95;;;1.75;;
19645;SDS011;9971;52.446;13.452;2024-03-29T02:53:25;1.42;;;1.20;;
19645;SDS011;9971;52.446;13.452;2024-03-29T02:58:27;1.47;;;1.12;;
19645;SDS011;9971;52.446;13.452;2024-03-29T03:03:30;2.08;;;1.20;;
19645;SDS011;9971;52.446;13.452;2024-03-29T03:08:32;2.22;;;1.20;;
19645;SDS011;9971;52.446;13.452;2024-03-29T03:13:40;1.83;;;1.20;;
19645;SDS011;9971;52.446;13.452;2024-03-29T03:18:43;1.40;;;1.10;;
19645;SDS011;9971;52.446;13.452;2024-03-29T03:23:45;1.40;;;1.30;;
19645;SDS011;9971;52.446;13.452;2024-03-29T03:28:48;2.95;;;1.62;;
19645;SDS011;9971;52.446;13.452;2024-03-29T03:33:50;1.70;;;1.60;;
19645;SDS011;9971;52.446;13.452;2024-03-29T03:38:53;1.45;;;1.12;;
19645;SDS011;9971;52.446;13.452;2024-03-29T03:43:55;1.47;;;1.10;;
19645;SDS011;9971;52.446;13.452;2024-03-29T03:48:57;1.10;;;1.00;;
19645;SDS011;9971;52.446;13.452;2024-03-29T03:54:00;1.27;;;0.93;;
19645;SDS011;9971;52.446;13.452;2024-03-29T03:59:02;1.33;;;1.20;;
19645;SDS011;9971;52.446;13.452;2024-03-29T04:04:05;1.72;;;1.30;;
19645;SDS011;9971;52.446;13.452;2024-03-29T04:09:07;1.17;;;1.07;;
19645;SDS011;9971;52.446;13.452;2024-03-29T04:14:10;1.25;;;1.15;;
19645;SDS011;9971;52.446;13.452;2024-03-29T04:19:12;1.47;;;1.30;;
19645;SDS011;9971;52.446;13.452;2024-03-29T04:24:14;2.27;;;1.40;;
19645;SDS011;9971;52.446;13.452;2024-03-29T04:29:17;1.45;;;1.05;;
19645;SDS011;9971;52.446;13.452;2024-03-29T04:34:19;1.60;;;1.22;;
19645;SDS011;9971;52.446;13.452;2024-03-29T04:39:22;2.37;;;1.10;;
19645;SDS011;9971;52.446;13.452;2024-03-29T04:44:24;1.60;;;1.37;;
19645;SDS011;9971;52.446;13.452;2024-03-29T04:49:26;1.43;;;1.33;;
19645;SDS011;9971;52.446;13.452;2024-03-29T04:54:35;1.40;;;1.03;;
19645;SDS011;9971;52.446;13.452;2024-03-29T04:59:37;3.00;;;1.47;;
19645;SDS011;9971;52.446;13.452;2024-03-29T05:04:40;2.20;;;1.62;;
19645;SDS011;9971;52.446;13.452;2024-03-29T05:09:42;1.27;;;1.00;;
19645;SDS011;9971;52.446;13.452;2024-03-29T05:14:44;1.37;;;1.02;;
19645;SDS011;9971;52.446;13.452;2024-03-29T05:19:46;1.62;;;1.07;;
19645;SDS011;9971;52.446;13.452;2024-03-29T05:24:52;2.77;;;1.25;;
19645;SDS011;9971;52.446;13.452;2024-03-29T05:29:55;2.37;;;1.20;;
19645;SDS011;9971;52.446;13.452;2024-03-29T05:34:58;1.40;;;1.30;;
19645;SDS011;9971;52.446;13.452;2024-03-29T05:40:00;2.85;;;1.27;;
19645;SDS011;9971;52.446;13.452;2024-03-29T05:45:04;1.07;;;0.97;;
19645;SDS011;9971;52.446;13.452;2024-03-29T05:50:05;1.62;;;1.00;;
19645;SDS011;9971;52.446;13.452;2024-03-29T05:55:08;2.50;;;0.93;;
19645;SDS011;9971;52.446;13.452;2024-03-29T06:00:11;1.07;;;0.98;;
19645;SDS011;9971;52.446;13.452;2024-03-29T06:05:13;0.93;;;0.90;;
19645;SDS011;9971;52.446;13.452;2024-03-29T06:10:15;0.75;;;0.75;;
19645;SDS011;9971;52.446;13.452;2024-03-29T06:15:18;2.30;;;1.00;;
19645;SDS011;9971;52.446;13.452;2024-03-29T06:20:26;0.87;;;0.70;;
19645;SDS011;9971;52.446;13.452;2024-03-29T06:25:28;2.60;;;0.98;;
19645;SDS011;9971;52.446;13.452;2024-03-29T06:30:31;0.93;;;0.88;;
19645;SDS011;9971;52.446;13.452;2024-03-29T06:35:33;1.40;;;0.98;;
19645;SDS011;9971;52.446;13.452;2024-03-29T06:40:36;1.52;;;0.82;;
19645;SDS011;9971;52.446;13.452;2024-03-29T06:45:40;0.72;;;0.70;;
19645;SDS011;9971;52.446;13.452;2024-03-29T06:50:41;0.93;;;0.80;;
19645;SDS011;9971;52.446;13.452;2024-03-29T06:55:43;3.55;;;1.00;;
19645;SDS011;9971;52.446;13.452;2024-03-29T07:00:46;1.72;;;1.05;;
19645;SDS011;9971;52.446;13.452;2024-03-29T07:05:48;1.90;;;1.17;;
19645;SDS011;9971;52.446;13.452;2024-03-29T07:10:57;1.30;;;1.15;;
19645;SDS011;9971;52.446;13.452;2024-03-29T07:15:58;2.73;;;1.23;;
19645;SDS011;9971;52.446;13.452;2024-03-29T07:21:01;0.78;;;0.78;;
19645;SDS011;9971;52.446;13.452;2024-03-29T07:26:04;3.45;;;0.98;;
19645;SDS011;9971;52.446;13.452;2024-03-29T07:31:06;1.53;;;0.70;;
19645;SDS011;9971;52.446;13.452;2024-03-29T07:36:08;1.52;;;0.80;;
19645;SDS011;9971;52.446;13.452;2024-03-29T07:41:10;2.07;;;0.80;;
19645;SDS011;9971;52.446;13.452;2024-03-29T07:46:12;1.42;;;0.80;;
19645;SDS011;9971;52.446;13.452;2024-03-29T07:51:15;1.67;;;1.00;;
19645;SDS011;9971;52.446;13.452;2024-03-29T07:56:17;1.10;;;0.80;;
19645;SDS011;9971;52.446;13.452;2024-03-29T08:01:20;0.80;;;0.72;;
19645;SDS011;9971;52.446;13.452;2024-03-29T08:06:22;2.97;;;0.97;;
19645;SDS011;9971;52.446;13.452;2024-03-29T08:11:25;1.00;;;0.80;;
19645;SDS011;9971;52.446;13.452;2024-03-29T08:16:27;0.60;;;0.60;;
19645;SDS011;9971;52.446;13.452;2024-03-29T08:21:30;1.12;;;0.68;;
19645;SDS011;9971;52.446;13.452;2024-03-29T08:26:32;0.80;;;0.80;;
19645;SDS011;9971;52.446;13.452;2024-03-29T08:31:35;0.70;;;0.70;;
19645;SDS011;9971;52.446;13.452;2024-03-29T08:36:37;0.75;;;0.75;;
19645;SDS011;9971;52.446;13.452;2024-03-29T08:41:40;0.93;;;0.90;;
19645;SDS011;9971;52.446;13.452;2024-03-29T08:46:42;1.55;;;1.00;;
19645;SDS011;9971;52.446;13.452;2024-03-29T08:51:45;1.42;;;0.80;;
19645;SDS011;9971;52.446;13.452;2024-03-29T08:56:47;1.15;;;0.75;;
19645;SDS011;9971;52.446;13.452;2024-03-29T09:01:49;1.77;;;0.98;;
19645;SDS011;9971;52.446;13.452;2024-03-29T09:06:52;1.27;;;0.93;;
19645;SDS011;9971;52.446;13.452;2024-03-29T09:11:54;1.47;;;0.80;;
19645;SDS011;9971;52.446;13.452;2024-03-29T09:16:56;1.45;;;0.88;;
19645;SDS011;9971;52.446;13.452;2024-03-29T09:21:59;1.75;;;0.80;;
19645;SDS011;9971;52.446;13.452;2024-03-29T09:27:01;0.85;;;0.80;;
19645;SDS011;9971;52.446;13.452;2024-03-29T09:32:04;2.27;;;1.05;;
19645;SDS011;9971;52.446;13.452;2024-03-29T09:37:07;2.37;;;0.95;;
19645;SDS011;9971;52.446;13.452;2024-03-29T09:42:09;1.22;;;0.65;;
19645;SDS011;9971;52.446;13.452;2024-03-29T09:47:13;1.53;;;0.90;;
19645;SDS011;9971;52.446;13.452;2024-03-29T09:52:13;1.40;;;0.77;;
19645;SDS011;9971;52.446;13.452;2024-03-29T09:57:15;1.30;;;0.90;;
19645;SDS011;9971;52.446;13.452;2024-03-29T10:02:17;1.67;;;1.43;;
19645;SDS011;9971;52.446;13.452;2024-03-29T10:07:19;2.03;;;1.43;;
19645;SDS011;9971;52.446;13.452;2024-03-29T10:12:22;2.23;;;0.87;;
19645;SDS011;9971;52.446;13.452;2024-03-29T10:17:24;1.47;;;0.70;;
19645;SDS011;9971;52.446;13.452;2024-03-29T10:22:27;1.80;;;0.98;;
19645;SDS011;9971;52.446;13.452;2024-03-29T10:27:29;1.10;;;0.78;;
19645;SDS011;9971;52.446;13.452;2024-03-29T10:32:32;0.80;;;0.80;;
19645;SDS011;9971;52.446;13.452;2024-03-29T10:37:35;0.90;;;0.80;;
19645;SDS011;9971;52.446;13.452;2024-03-29T10:42:37;0.78;;;0.78;;
19645;SDS011;9971;52.446;13.452;2024-03-29T10:47:38;2.57;;;1.30;;
19645;SDS011;9971;52.446;13.452;2024-03-29T10:52:40;1.07;;;0.70;;
19645;SDS011;9971;52.446;13.452;2024-03-29T10:57:43;1.62;;;0.78;;
19645;SDS011;9971;52.446;13.452;2024-03-29T11:02:48;0.63;;;0.63;;
19645;SDS011;9971;52.446;13.452;2024-03-29T11:07:49;0.80;;;0.77;;
19645;SDS011;9971;52.446;13.452;2024-03-29T11:18:14;1.55;;;1.00;;
19645;SDS011;9971;52.446;13.452;2024-03-29T11:23:15;0.70;;;0.70;;
19645;SDS011;9971;52.446;13.452;2024-03-29T11:28:24;2.27;;;0.80;;
19645;SDS011;9971;52.446;13.452;2024-03-29T11:33:27;0.70;;;0.70;;
19645;SDS011;9971;52.446;13.452;2024-03-29T11:38:31;0.63;;;0.63;;
19645;SDS011;9971;52.446;13.452;2024-03-29T11:43:33;1.03;;;0.57;;
19645;SDS011;9971;52.446;13.452;2024-03-29T11:48:35;1.22;;;0.90;;
19645;SDS011;9971;52.446;13.452;2024-03-29T11:53:37;1.10;;;0.90;;
19645;SDS011;9971;52.446;13.452;2024-03-29T11:58:39;1.20;;;0.70;;
19645;SDS011;9971;52.446;13.452;2024-03-29T12:03:41;0.83;;;0.80;;
19645;SDS011;9971;52.446;13.452;2024-03-29T12:08:43;0.80;;;0.80;;
19645;SDS011;9971;52.446;13.452;2024-03-29T12:13:45;0.72;;;0.60;;
19645;SDS011;9971;52.446;13.452;2024-03-29T12:18:47;0.73;;;0.73;;
19645;SDS011;9971;52.446;13.452;2024-03-29T12:23:49;0.78;;;0.65;;
19645;SDS011;9971;52.446;13.452;2024-03-29T12:28:52;1.10;;;0.70;;
19645;SDS011;9971;52.446;13.452;2024-03-29T12:33:54;0.70;;;0.70;;
19645;SDS011;9971;52.446;13.452;2024-03-29T12:38:57;1.47;;;0.85;;
19645;SDS011;9971;52.446;13.452;2024-03-29T12:43:58;1.07;;;0.87;;
19645;SDS011;9971;52.446;13.452;2024-03-29T12:49:01;0.75;;;0.70;;
19645;SDS011;9971;52.446;13.452;2024-03-29T12:54:03;0.70;;;0.60;;
19645;SDS011;9971;52.446;13.452;2024-03-29T12:59:05;0.82;;;0.82;;
19645;SDS011;9971;52.446;13.452;2024-03-29T13:04:07;0.63;;;0.63;;
19645;SDS011;9971;52.446;13.452;2024-03-29T13:09:09;0.78;;;0.78;;
19645;SDS011;9971;52.446;13.452;2024-03-29T13:14:11;0.90;;;0.78;;
19645;SDS011;9971;52.446;13.452;2024-03-29T13:19:14;0.85;;;0.85;;
19645;SDS011;9971;52.446;13.452;2024-03-29T13:24:16;2.00;;;0.88;;
19645;SDS011;9971;52.446;13.452;2024-03-29T13:29:19;0.70;;;0.70;;
19645;SDS011;9971;52.446;13.452;2024-03-29T13:34:21;0.90;;;0.90;;
19645;SDS011;9971;52.446;13.452;2024-03-29T13:39:24;1.00;;;0.80;;
19645;SDS011;9971;52.446;13.452;2024-03-29T13:44:27;1.30;;;0.90;;
19645;SDS011;9971;52.446;13.452;2024-03-29T13:49:30;1.07;;;0.98;;
19645;SDS011;9971;52.446;13.452;2024-03-29T13:54:31;1.63;;;0.90;;
19645;SDS011;9971;52.446;13.452;2024-03-29T13:59:34;1.45;;;1.02;;
19645;SDS011;9971;52.446;13.452;2024-03-29T14:04:36;1.50;;;0.98;;
19645;SDS011;9971;52.446;13.452;2024-03-29T14:09:38;1.35;;;0.80;;
19645;SDS011;9971;52.446;13.452;2024-03-29T14:14:41;0.72;;;0.72;;
19645;SDS011;9971;52.446;13.452;2024-03-29T14:19:43;1.60;;;0.93;;
19645;SDS011;9971;52.446;13.452;2024-03-29T14:24:45;0.70;;;0.70;;
19645;SDS011;9971;52.446;13.452;2024-03-29T14:29:47;0.73;;;0.73;;
19645;SDS011;9971;52.446;13.452;2024-03-29T14:34:50;1.20;;;0.93;;
19645;SDS011;9971;52.446;13.452;2024-03-29T14:39:52;1.55;;;0.85;;
19645;SDS011;9971;52.446;13.452;2024-03-29T14:44:54;0.80;;;0.80;;
19645;SDS011;9971;52.446;13.452;2024-03-29T14:49:57;0.60;;;0.60;;
19645;SDS011;9971;52.446;13.452;2024-03-29T14:54:59;1.07;;;0.50;;
19645;SDS011;9971;52.446;13.452;2024-03-29T15:00:01;0.50;;;0.50;;
19645;SDS011;9971;52.446;13.452;2024-03-29T15:05:04;1.32;;;0.80;;
19645;SDS011;9971;52.446;13.452;2024-03-29T15:10:07;1.00;;;0.57;;
19645;SDS011;9971;52.446;13.452;2024-03-29T15:15:09;1.05;;;0.85;;
19645;SDS011;9971;52.446;13.452;2024-03-29T15:20:12;1.10;;;0.82;;
19645;SDS011;9971;52.446;13.452;2024-03-29T15:25:14;0.45;;;0.40;;
19645;SDS011;9971;52.446;13.452;2024-03-29T15:30:17;0.88;;;0.72;;
19645;SDS011;9971;52.446;13.452;2024-03-29T15:35:20;0.50;;;0.50;;
19645;SDS011;9971;52.446;13.452;2024-03-29T15:40:22;0.82;;;0.82;;
19645;SDS011;9971;52.446;13.452;2024-03-29T15:45:25;0.75;;;0.75;;
19645;SDS011;9971;52.446;13.452;2024-03-29T15:50:27;0.68;;;0.60;;
19645;SDS011;9971;52.446;13.452;2024-03-29T15:55:30;0.60;;;0.60;;
19645;SDS011;9971;52.446;13.452;2024-03-29T16:00:32;0.53;;;0.40;;
19645;SDS011;9971;52.446;13.452;2024-03-29T16:05:34;0.60;;;0.60;;
19645;SDS011;9971;52.446;13.452;2024-03-29T16:15:51;0.87;;;0.70;;
19645;SDS011;9971;52.446;13.452;2024-03-29T16:20:53;1.23;;;0.80;;
19645;SDS011;9971;52.446;13.452;2024-03-29T16:25:55;0.97;;;0.87;;
19645;SDS011;9971;52.446;13.452;2024-03-29T16:30:56;0.70;;;0.70;;
19645;SDS011;9971;52.446;13.452;2024-03-29T16:35:59;0.65;;;0.60;;
19645;SDS011;9971;52.446;13.452;2024-03-29T16:41:01;3.47;;;1.00;;
19645;SDS011;9971;52.446;13.452;2024-03-29T16:46:04;0.62;;;0.62;;
19645;SDS011;9971;52.446;13.452;2024-03-29T16:51:06;0.75;;;0.72;;
19645;SDS011;9971;52.446;13.452;2024-03-29T16:56:09;2.47;;;0.68;;
19645;SDS011;9971;52.446;13.452;2024-03-29T17:01:11;0.62;;;0.60;;
19645;SDS011;9971;52.446;13.452;2024-03-29T17:06:13;2.33;;;0.75;;
19645;SDS011;9971;52.446;13.452;2024-03-29T17:11:16;0.77;;;0.60;;
19645;SDS011;9971;52.446;13.452;2024-03-29T17:16:18;1.20;;;1.10;;
19645;SDS011;9971;52.446;13.452;2024-03-29T17:21:21;1.22;;;1.12;;
19645;SDS011;9971;52.446;13.452;2024-03-29T17:26:23;1.27;;;0.90;;
19645;SDS011;9971;52.446;13.452;2024-03-29T17:31:26;0.98;;;0.90;;
19645;SDS011;9971;52.446;13.452;2024-03-29T17:36:28;0.72;;;0.70;;
19645;SDS011;9971;52.446;13.452;2024-03-29T17:41:31;2.42;;;0.88;;
19645;SDS011;9971;52.446;13.452;2024-03-29T17:46:33;0.47;;;0.47;;
19645;SDS011;9971;52.446;13.452;2024-03-29T17:51:35;2.83;;;2.13;;
19645;SDS011;9971;52.446;13.452;2024-03-29T17:56:38;1.10;;;1.00;;
19645;SDS011;9971;52.446;13.452;2024-03-29T18:01:40;0.97;;;0.80;;
19645;SDS011;9971;52.446;13.452;2024-03-29T18:06:41;1.17;;;0.80;;
19645;SDS011;9971;52.446;13.452;2024-03-29T18:11:44;0.98;;;0.93;;
19645;SDS011;9971;52.446;13.452;2024-03-29T18:16:46;1.20;;;0.95;;
19645;SDS011;9971;52.446;13.452;2024-03-29T18:21:49;1.17;;;1.10;;
19645;SDS011;9971;52.446;13.452;2024-03-29T18:26:51;1.40;;;1.30;;
19645;SDS011;9971;52.446;13.452;2024-03-29T18:31:53;2.27;;;2.00;;
19645;SDS011;9971;52.446;13.452;2024-03-29T18:36:56;0.93;;;0.93;;
19645;SDS011;9971;52.446;13.452;2024-03-29T18:41:58;1.75;;;1.10;;
19645;SDS011;9971;52.446;13.452;2024-03-29T18:47:01;1.15;;;0.90;;
19645;SDS011;9971;52.446;13.452;2024-03-29T18:52:04;0.70;;;0.70;;
19645;SDS011;9971;52.446;13.452;2024-03-29T18:57:06;1.25;;;1.12;;
19645;SDS011;9971;52.446;13.452;2024-03-29T19:02:09;1.25;;;1.10;;
19645;SDS011;9971;52.446;13.452;2024-03-29T19:07:11;1.47;;;1.10;;
19645;SDS011;9971;52.446;13.452;2024-03-29T19:12:14;1.05;;;0.90;;
19645;SDS011;9971;52.446;13.452;2024-03-29T19:17:16;0.98;;;0.93;;
19645;SDS011;9971;52.446;13.452;2024-03-29T19:22:18;1.43;;;0.90;;
19645;SDS011;9971;52.446;13.452;2024-03-29T19:27:20;1.40;;;0.90;;
19645;SDS011;9971;52.446;13.452;2024-03-29T19:32:27;1.65;;;1.07;;
19645;SDS011;9971;52.446;13.452;2024-03-29T19:37:26;0.72;;;0.72;;
19645;SDS011;9971;52.446;13.452;2024-03-29T19:42:28;0.80;;;0.80;;
19645;SDS011;9971;52.446;13.452;2024-03-29T19:47:31;0.85;;;0.85;;
19645;SDS011;9971;52.446;13.452;2024-03-29T19:52:33;1.05;;;0.95;;
19645;SDS011;9971;52.446;13.452;2024-03-29T19:57:36;2.10;;;2.00;;
19645;SDS011;9971;52.446;13.452;2024-03-29T20:02:38;1.70;;;1.52;;
19645;SDS011;9971;52.446;13.452;2024-03-29T20:07:40;2.05;;;1.72;;
19645;SDS011;9971;52.446;13.452;2024-03-29T20:12:43;3.70;;;3.35;;
19645;SDS011;9971;52.446;13.452;2024-03-29T20:17:45;3.35;;;3.05;;
19645;SDS011;9971;52.446;13.452;2024-03-29T20:22:48;4.22;;;3.58;;
19645;SDS011;9971;52.446;13.452;2024-03-29T20:27:50;6.75;;;3.98;;
19645;SDS011;9971;52.446;13.452;2024-03-29T20:32:52;3.93;;;2.67;;
19645;SDS011;9971;52.446;13.452;2024-03-29T20:37:55;7.30;;;6.53;;
19645;SDS011;9971;52.446;13.452;2024-03-29T20:42:57;1.82;;;1.70;;
19645;SDS011;9971;52.446;13.452;2024-03-29T20:48:00;1.98;;;1.72;;
19645;SDS011;9971;52.446;13.452;2024-03-29T20:53:02;2.37;;;2.17;;
19645;SDS011;9971;52.446;13.452;2024-03-29T20:58:05;3.45;;;2.55;;
19645;SDS011;9971;52.446;13.452;2024-03-29T21:03:07;2.27;;;2.05;;
19645;SDS011;9971;52.446;13.452;2024-03-29T21:08:15;2.07;;;1.93;;
19645;SDS011;9971;52.446;13.452;2024-03-29T21:13:17;2.45;;;2.22;;
19645;SDS011;9971;52.446;13.452;2024-03-29T21:18:20;2.65;;;2.08;;
19645;SDS011;9971;52.446;13.452;2024-03-29T21:23:23;5.08;;;3.62;;
19645;SDS011;9971;52.446;13.452;2024-03-29T21:28:25;3.27;;;2.98;;
19645;SDS011;9971;52.446;13.452;2024-03-29T21:33:27;3.55;;;3.20;;
19645;SDS011;9971;52.446;13.452;2024-03-29T21:38:30;3.55;;;3.25;;
19645;SDS011;9971;52.446;13.452;2024-03-29T21:43:32;3.22;;;2.92;;
19645;SDS011;9971;52.446;13.452;2024-03-29T21:48:35;3.35;;;2.85;;
19645;SDS011;9971;52.446;13.452;2024-03-29T21:53:37;3.37;;;3.08;;
19645;SDS011;9971;52.446;13.452;2024-03-29T21:58:40;3.65;;;3.35;;
19645;SDS011;9971;52.446;13.452;2024-03-29T22:03:42;3.77;;;3.33;;
19645;SDS011;9971;52.446;13.452;2024-03-29T22:08:45;3.50;;;3.20;;
19645;SDS011;9971;52.446;13.452;2024-03-29T22:13:47;3.22;;;2.92;;
19645;SDS011;9971;52.446;13.452;2024-03-29T22:18:50;3.25;;;2.92;;
19645;SDS011;9971;52.446;13.452;2024-03-29T22:23:52;3.45;;;3.15;;
19645;SDS011;9971;52.446;13.452;2024-03-29T22:28:54;3.67;;;3.37;;
19645;SDS011;9971;52.446;13.452;2024-03-29T22:33:57;4.20;;;3.85;;
19645;SDS011;9971;52.446;13.452;2024-03-29T22:39:02;4.22;;;3.92;;
19645;SDS011;9971;52.446;13.452;2024-03-29T22:44:04;4.53;;;4.03;;
19645;SDS011;9971;52.446;13.452;2024-03-29T22:49:06;4.28;;;3.95;;
19645;SDS011;9971;52.446;13.452;2024-03-29T22:54:09;4.33;;;3.98;;
19645;SDS011;9971;52.446;13.452;2024-03-29T22:59:11;4.28;;;3.95;;
19645;SDS011;9971;52.446;13.452;2024-03-29T23:04:14;4.72;;;4.22;;
19645;SDS011;9971;52.446;13.452;2024-03-29T23:09:16;4.65;;;4.25;;
19645;SDS011;9971;52.446;13.452;2024-03-29T23:14:19;4.22;;;3.83;;
19645;SDS011;9971;52.446;13.452;2024-03-29T23:19:21;5.15;;;4.25;;
19645;SDS011;9971;52.446;13.452;2024-03-29T23:24:24;5.00;;;4.50;;
19645;SDS011;9971;52.446;13.452;2024-03-29T23:29:26;6.10;;;4.75;;
19645;SDS011;9971;52.446;13.452;2024-03-29T23:34:29;5.03;;;4.50;;
19645;SDS011;9971;52.446;13.452;2024-03-29T23:39:31;5.53;;;5.03;;
19645;SDS011;9971;52.446;13.452;2024-03-29T23:44:34;5.67;;;5.15;;
19645;SDS011;9971;52.446;13.452;2024-03-29T23:49:36;5.90;;;5.30;;
19645;SDS011;9971;52.446;13.452;2024-03-29T23:54:38;4.78;;;4.37;;
19645;SDS011;9971;52.446;13.452;2024-03-29T23:59:41;5.35;;;4.92;;
